createdAt,value
2023-05-12T00:00:58.666Z,100959.97
2023-05-12T00:03:25.247Z,100961.63
2023-05-12T00:05:51.972Z,100959.97
2023-05-12T00:08:18.351Z,100952.09
2023-05-12T00:10:44.789Z,100949.47
2023-05-12T00:13:11.524Z,100946.03
2023-05-12T00:15:38.096Z,100949.63
2023-05-12T00:18:04.581Z,100948.66
2023-05-12T00:20:31.361Z,100941.59
2023-05-12T00:22:57.772Z,100939.81
2023-05-12T00:25:24.199Z,100940.91
2023-05-12T00:27:50.640Z,100938.28
2023-05-12T00:30:17.245Z,100948.78
2023-05-12T00:32:43.759Z,100936.91
2023-05-12T00:35:10.290Z,100943.66
2023-05-12T00:37:36.725Z,100937.59
2023-05-12T00:40:03.398Z,100940.06
2023-05-12T00:42:29.838Z,100942.84
2023-05-12T00:44:56.256Z,100931.50
2023-05-12T00:47:22.808Z,100937.44
2023-05-12T00:49:49.396Z,100936.50
2023-05-12T00:52:15.855Z,100932.19
2023-05-12T00:54:43.867Z,100933.88
2023-05-12T00:57:11.260Z,100930.28
2023-05-12T00:59:37.692Z,100927.50
2023-05-12T01:02:04.618Z,100930.84
2023-05-12T01:04:32.700Z,100930.69
2023-05-12T01:07:21.076Z,100927.94
2023-05-12T01:09:47.537Z,100923.66
2023-05-12T01:12:13.974Z,100921.03
2023-05-12T01:14:41.378Z,100914.94
2023-05-12T01:17:14.718Z,100923.91
2023-05-12T01:19:54.440Z,100922.25
2023-05-12T01:22:21.208Z,100914.53
2023-05-12T01:24:54.773Z,100920.59
2023-05-12T01:27:23.540Z,100912.88
2023-05-12T01:29:51.229Z,100915.63
2023-05-12T01:32:18.339Z,100912.72
2023-05-12T01:34:44.955Z,100913.56
2023-05-12T01:37:12.623Z,100914.53
2023-05-12T01:39:39.076Z,100914.38
2023-05-12T01:42:05.927Z,100914.38
2023-05-12T01:44:32.452Z,100905.81
2023-05-12T01:46:58.972Z,100905.94
2023-05-12T01:49:25.452Z,100904.28
2023-05-12T01:51:51.922Z,100907.06
2023-05-12T01:54:18.299Z,100909.81
2023-05-12T01:56:44.726Z,100904.00
2023-05-12T01:59:11.509Z,100900.09
2023-05-12T02:01:37.969Z,100898.16
2023-05-12T02:04:04.850Z,100892.34
2023-05-12T02:06:32.520Z,100892.47
2023-05-12T02:08:58.934Z,100895.38
2023-05-12T02:11:26.067Z,100896.31
2023-05-12T02:13:52.522Z,100884.44
2023-05-12T02:16:19.067Z,100867.84
2023-05-12T02:18:45.690Z,100840.59
2023-05-12T02:21:12.145Z,100824.41
2023-05-12T02:23:38.529Z,100809.75
2023-05-12T02:26:05.137Z,100801.19
2023-05-12T02:28:31.610Z,100814.16
2023-05-12T02:30:58.040Z,100828.34
2023-05-12T02:33:24.684Z,100848.13
2023-05-12T02:35:51.328Z,100848.94
2023-05-12T02:38:18.066Z,100849.06
2023-05-12T02:40:44.479Z,100860.38
2023-05-12T02:43:11.114Z,100860.78
2023-05-12T02:45:37.605Z,100859.13
2023-05-12T02:48:04.444Z,100860.94
2023-05-12T02:50:30.875Z,100855.69
2023-05-12T02:52:57.280Z,100876.09
2023-05-12T02:55:23.705Z,100875.94
2023-05-12T02:57:50.149Z,100885.47
2023-05-12T03:00:16.806Z,100880.38
2023-05-12T03:02:43.456Z,100877.59
2023-05-12T03:05:10.244Z,100872.34
2023-05-12T03:07:36.891Z,100875.81
2023-05-12T03:10:03.942Z,100876.66
2023-05-12T03:12:30.412Z,100875.94
2023-05-12T03:14:57.410Z,100880.38
2023-05-12T03:17:23.957Z,100879.41
2023-05-12T03:19:50.413Z,100871.09
2023-05-12T03:22:17.243Z,100877.03
2023-05-12T03:24:43.801Z,100874.97
2023-05-12T03:27:10.214Z,100881.91
2023-05-12T03:29:36.751Z,100878.31
2023-05-12T03:32:03.246Z,100873.75
2023-05-12T03:34:29.694Z,100873.63
2023-05-12T03:36:56.096Z,100882.19
2023-05-12T03:39:24.546Z,100874.34
2023-05-12T03:41:50.907Z,100872.53
2023-05-12T03:44:17.335Z,100874.47
2023-05-12T03:46:43.828Z,100876.84
2023-05-12T03:49:10.628Z,100881.13
2023-05-12T03:51:37.110Z,100873.25
2023-05-12T03:54:03.727Z,100876.84
2023-05-12T03:56:30.231Z,100877.34
2023-05-12T03:58:57.349Z,100886.03
2023-05-12T04:01:23.788Z,100882.72
2023-05-12T04:03:50.401Z,100884.66
2023-05-12T04:06:16.935Z,100887.16
2023-05-12T04:08:43.322Z,100887.16
2023-05-12T04:11:09.762Z,100887.97
2023-05-12T04:13:36.190Z,100887.00
2023-05-12T04:16:02.625Z,100890.47
2023-05-12T04:18:29.184Z,100888.66
2023-05-12T04:20:55.885Z,100895.69
2023-05-12T04:23:23.152Z,100894.84
2023-05-12T04:25:49.560Z,100893.78
2023-05-12T04:28:16.164Z,100881.50
2023-05-12T04:30:42.941Z,100895.44
2023-05-12T04:33:10.090Z,100899.88
2023-05-12T04:35:36.728Z,100896.13
2023-05-12T04:38:03.460Z,100898.63
2023-05-12T04:40:32.031Z,100906.50
2023-05-12T04:42:59.861Z,100916.16
2023-05-12T04:45:26.268Z,100910.94
2023-05-12T04:47:52.794Z,100911.84
2023-05-12T04:50:19.228Z,100919.88
2023-05-12T04:52:45.671Z,100923.31
2023-05-12T04:55:12.077Z,100930.59
2023-05-12T04:57:41.179Z,100929.41
2023-05-12T05:00:09.070Z,100924.16
2023-05-12T05:02:36.011Z,100929.63
2023-05-12T05:05:02.542Z,100934.88
2023-05-12T05:07:28.949Z,100940.28
2023-05-12T05:09:55.357Z,100941.09
2023-05-12T05:12:21.761Z,100948.25
2023-05-12T05:14:48.212Z,100954.59
2023-05-12T05:17:14.722Z,100957.09
2023-05-12T05:19:54.735Z,100948.97
2023-05-12T05:22:22.524Z,100958.63
2023-05-12T05:24:48.996Z,100955.03
2023-05-12T05:27:15.460Z,100957.56
2023-05-12T05:29:41.899Z,100968.63
2023-05-12T05:32:08.412Z,100970.84
2023-05-12T05:34:34.892Z,100965.59
2023-05-12T05:37:01.811Z,100980.38
2023-05-12T05:39:30.743Z,100977.47
2023-05-12T05:41:57.926Z,100973.09
2023-05-12T05:44:25.134Z,100980.09
2023-05-12T05:46:51.860Z,100978.88
2023-05-12T05:49:19.604Z,100980.41
2023-05-12T05:51:46.074Z,100998.78
2023-05-12T05:54:12.577Z,100997.56
2023-05-12T05:56:38.998Z,101000.50
2023-05-12T05:59:05.757Z,100998.84
2023-05-12T06:01:32.837Z,100999.22
2023-05-12T06:03:59.669Z,101003.13
2023-05-12T06:06:26.281Z,101007.28
2023-05-12T06:08:55.811Z,101009.75
2023-05-12T06:11:22.266Z,101013.03
2023-05-12T06:13:48.690Z,101010.66
2023-05-12T06:16:15.347Z,101013.97
2023-05-12T06:18:41.889Z,101021.19
2023-05-12T06:21:08.425Z,101023.56
2023-05-12T06:23:35.057Z,101022.44
2023-05-12T06:26:01.578Z,101023.16
2023-05-12T06:28:28.045Z,101025.63
2023-05-12T06:30:54.488Z,101026.59
2023-05-12T06:33:21.423Z,101036.22
2023-05-12T06:35:48.353Z,101030.41
2023-05-12T06:38:14.944Z,101036.22
2023-05-12T06:40:41.424Z,101047.13
2023-05-12T06:43:07.927Z,101046.13
2023-05-12T06:45:34.410Z,101041.56
2023-05-12T06:48:01.582Z,101055.50
2023-05-12T06:50:28.270Z,101045.09
2023-05-12T06:52:54.652Z,101045.56
2023-05-12T06:55:21.912Z,101056.34
2023-05-12T06:57:51.469Z,101056.09
2023-05-12T07:00:18.238Z,101052.19
2023-05-12T07:02:44.690Z,101061.28
2023-05-12T07:05:11.379Z,101057.16
2023-05-12T07:07:37.771Z,101061.63
2023-05-12T07:10:04.506Z,101061.78
2023-05-12T07:12:32.165Z,101064.13
2023-05-12T07:14:59.414Z,101062.97
2023-05-12T07:17:25.957Z,101069.38
2023-05-12T07:19:52.795Z,101066.50
2023-05-12T07:22:20.200Z,101064.47
2023-05-12T07:24:46.827Z,101064.22
2023-05-12T07:27:13.302Z,101067.56
2023-05-12T07:29:39.698Z,101072.94
2023-05-12T07:32:06.300Z,101065.91
2023-05-12T07:34:33.799Z,101061.91
2023-05-12T07:37:02.387Z,101072.81
2023-05-12T07:39:30.948Z,101070.44
2023-05-12T07:41:57.423Z,101074.03
2023-05-12T07:44:24.535Z,101067.22
2023-05-12T07:46:51.042Z,101073.91
2023-05-12T07:49:17.446Z,101079.97
2023-05-12T07:51:44.035Z,101078.47
2023-05-12T07:54:10.600Z,101081.66
2023-05-12T07:56:37.075Z,101086.25
2023-05-12T07:59:04.058Z,101091.94
2023-05-12T08:01:30.513Z,101089.34
2023-05-12T08:03:57.065Z,101085.19
2023-05-12T08:08:51.185Z,101091.72
2023-05-12T08:11:17.706Z,101096.69
2023-05-12T08:13:44.111Z,101097.13
2023-05-12T08:16:10.654Z,101096.44
2023-05-12T08:18:37.178Z,101101.59
2023-05-12T08:21:03.706Z,101098.81
2023-05-12T08:23:30.223Z,101106.97
2023-05-12T08:25:56.633Z,101113.63
2023-05-12T08:28:23.113Z,101109.06
2023-05-12T08:30:49.617Z,101106.59
2023-05-12T08:33:16.458Z,101104.09
2023-05-12T08:35:42.979Z,101120.72
2023-05-12T08:38:09.528Z,101122.78
2023-05-12T08:40:58.688Z,101118.22
2023-05-12T08:43:38.958Z,101119.34
2023-05-12T08:46:06.255Z,101125.31
2023-05-12T08:48:34.728Z,101134.84
2023-05-12T08:51:02.822Z,101129.31
2023-05-12T08:53:29.680Z,101125.69
2023-05-12T08:57:09.489Z,101129.44
2023-05-12T08:58:45.548Z,101133.97
2023-05-12T09:01:12.770Z,101137.03
2023-05-12T09:03:39.422Z,101147.25
2023-05-12T09:06:06.877Z,101138.50
2023-05-12T09:08:34.933Z,101139.06
2023-05-12T09:11:02.173Z,101140.88
2023-05-12T09:13:40.327Z,101142.00
2023-05-12T09:16:12.006Z,101140.34
2023-05-12T09:18:52.281Z,101146.09
2023-05-12T09:21:19.711Z,101142.91
2023-05-12T09:24:06.010Z,101144.97
2023-05-12T09:26:52.770Z,101150.81
2023-05-12T09:29:30.063Z,101154.84
2023-05-12T09:31:59.501Z,101154.19
2023-05-12T09:34:31.161Z,101153.53
2023-05-12T09:37:03.500Z,101166.53
2023-05-12T09:39:29.914Z,101158.22
2023-05-12T09:41:56.812Z,101154.56
2023-05-12T09:44:24.304Z,101157.41
2023-05-12T09:46:51.443Z,101150.31
2023-05-12T09:49:26.940Z,101156.88
2023-05-12T09:51:58.455Z,101155.09
2023-05-12T09:54:29.307Z,101171.38
2023-05-12T09:57:02.373Z,101169.50
2023-05-12T09:59:34.855Z,101166.75
2023-05-12T10:02:05.344Z,101165.16
2023-05-12T10:04:43.332Z,101171.50
2023-05-12T10:07:12.687Z,101167.88
2023-05-12T10:09:42.246Z,101169.22
2023-05-12T10:12:10.175Z,101161.16
2023-05-12T10:14:37.388Z,101160.41
2023-05-12T10:17:05.378Z,101182.88
2023-05-12T10:19:32.715Z,101166.09
2023-05-12T10:22:00.572Z,101172.91
2023-05-12T10:24:28.686Z,101158.34
2023-05-12T10:26:56.610Z,101164.25
2023-05-12T10:29:30.170Z,101163.03
2023-05-12T10:31:57.784Z,101163.72
2023-05-12T10:34:36.892Z,101161.44
2023-05-12T10:37:11.221Z,101158.69
2023-05-12T10:39:47.552Z,101167.38
2023-05-12T10:42:17.628Z,101158.00
2023-05-12T10:44:55.608Z,101160.50
2023-05-12T10:47:37.100Z,101169.25
2023-05-12T10:50:03.770Z,101162.56
2023-05-12T10:52:30.325Z,101169.25
2023-05-12T10:55:02.008Z,101168.25
2023-05-12T10:57:28.892Z,101159.44
2023-05-12T11:00:01.006Z,101161.63
2023-05-12T11:02:32.887Z,101161.38
2023-05-12T11:07:33.362Z,101169.34
2023-05-12T11:10:05.695Z,101162.19
2023-05-12T11:12:36.007Z,101162.31
2023-05-12T11:15:04.803Z,101160.06
2023-05-12T11:17:32.058Z,101162.28
2023-05-12T11:20:00.380Z,101164.03
2023-05-12T11:22:27.042Z,101174.25
2023-05-12T11:24:53.810Z,101173.56
2023-05-12T11:27:22.862Z,101155.69
2023-05-12T11:30:00.747Z,101176.06
2023-05-12T11:32:28.280Z,101169.81
2023-05-12T11:34:55.186Z,101172.13
2023-05-12T11:37:22.749Z,101171.31
2023-05-12T11:39:49.269Z,101172.88
2023-05-12T11:42:18.623Z,101173.81
2023-05-12T11:44:50.394Z,101161.81
2023-05-12T11:47:19.097Z,101174.69
2023-05-12T11:49:54.692Z,101171.41
2023-05-12T11:52:22.969Z,101176.28
2023-05-12T11:54:57.314Z,101173.78
2023-05-12T11:57:32.533Z,101174.06
2023-05-12T12:00:02.157Z,101170.72
2023-05-12T12:02:29.201Z,101177.28
2023-05-12T12:04:56.344Z,101172.69
2023-05-12T12:07:31.672Z,101170.38
2023-05-12T12:09:58.979Z,101173.59
2023-05-12T12:12:25.636Z,101170.09
2023-05-12T12:14:52.055Z,101162.09
2023-05-12T12:17:18.820Z,101172.91
2023-05-12T12:19:47.786Z,101179.41
2023-05-12T12:22:14.578Z,101182.66
2023-05-12T12:24:41.108Z,101182.19
2023-05-12T12:29:47.990Z,101183.16
2023-05-12T12:32:14.444Z,101197.19
2023-05-12T12:34:41.402Z,101180.47
2023-05-12T12:37:07.840Z,101187.56
2023-05-12T12:39:34.242Z,101190.56
2023-05-12T12:42:00.736Z,101206.19
2023-05-12T12:44:27.225Z,101195.44
2023-05-12T12:46:53.748Z,101203.75
2023-05-12T12:49:20.340Z,101199.09
2023-05-12T12:51:47.348Z,101198.44
2023-05-12T12:54:14.871Z,101202.41
2023-05-12T12:56:42.521Z,101205.34
2023-05-12T12:59:09.234Z,101200.91
2023-05-12T13:01:35.813Z,101199.06
2023-05-12T13:04:02.341Z,101201.38
2023-05-12T13:06:29.445Z,101201.38
2023-05-12T13:08:56.499Z,101204.69
2023-05-12T13:11:23.041Z,101201.03
2023-05-12T13:13:49.478Z,101203.03
2023-05-12T13:16:15.962Z,101204.19
2023-05-12T13:18:42.741Z,101201.03
2023-05-12T13:21:09.209Z,101203.69
2023-05-12T13:23:35.711Z,101196.41
2023-05-12T13:26:02.179Z,101196.75
2023-05-12T13:28:28.815Z,101189.50
2023-05-12T13:30:55.351Z,101194.66
2023-05-12T13:33:21.871Z,101187.16
2023-05-12T13:35:48.299Z,101194.06
2023-05-12T13:38:15.411Z,101188.56
2023-05-12T13:40:42.032Z,101186.72
2023-05-12T13:43:08.452Z,101183.19
2023-05-12T13:45:34.907Z,101179.47
2023-05-12T13:48:01.391Z,101171.97
2023-05-12T13:50:27.819Z,101181.69
2023-05-12T13:52:54.260Z,101190.13
2023-05-12T13:55:21.740Z,101173.13
2023-05-12T13:57:48.900Z,101178.09
2023-05-12T14:00:17.274Z,101182.91
2023-05-12T14:02:44.001Z,101178.94
2023-05-12T14:05:10.846Z,101176.81
2023-05-12T14:07:37.539Z,101187.09
2023-05-12T14:10:04.092Z,101186.81
2023-05-12T14:12:31.098Z,101177.25
2023-05-12T14:15:07.334Z,101190.84
2023-05-12T14:17:38.600Z,101193.50
2023-05-12T14:20:06.565Z,101195.47
2023-05-12T14:22:33.504Z,101194.47
2023-05-12T14:25:00.529Z,101194.00
2023-05-12T14:27:26.970Z,101197.56
2023-05-12T14:29:53.462Z,101195.63
2023-05-12T14:32:19.973Z,101190.13
2023-05-12T14:34:46.489Z,101193.78
2023-05-12T14:37:13.170Z,101187.31
2023-05-12T14:39:39.576Z,101203.72
2023-05-12T14:42:06.319Z,101200.56
2023-05-12T14:44:32.757Z,101201.56
2023-05-12T14:46:59.162Z,101202.72
2023-05-12T14:49:25.715Z,101201.72
2023-05-12T14:51:52.179Z,101203.72
2023-05-12T14:54:25.200Z,101207.50
2023-05-12T14:56:52.711Z,101202.72
2023-05-12T14:59:19.278Z,101206.38
2023-05-12T15:01:46.035Z,101203.91
2023-05-12T15:04:13.192Z,101203.59
2023-05-12T15:06:40.061Z,101213.50
2023-05-12T15:09:07.226Z,101211.03
2023-05-12T15:11:33.793Z,101214.34
2023-05-12T15:14:00.236Z,101207.56
2023-05-12T15:16:27.959Z,101214.00
2023-05-12T15:18:54.714Z,101212.00
2023-05-12T15:21:21.335Z,101218.00
2023-05-12T15:23:47.992Z,101212.34
2023-05-12T15:26:31.215Z,101215.16
2023-05-12T15:28:59.335Z,101218.94
2023-05-12T15:31:28.405Z,101206.66
2023-05-12T15:33:56.460Z,101217.56
2023-05-12T15:36:22.960Z,101210.72
2023-05-12T15:38:49.391Z,101210.13
2023-05-12T15:41:16.229Z,101208.91
2023-05-12T15:43:42.926Z,101210.06
2023-05-12T15:46:10.853Z,101213.72
2023-05-12T15:48:37.753Z,101211.56
2023-05-12T15:51:04.345Z,101221.19
2023-05-12T15:53:31.586Z,101219.25
2023-05-12T15:56:01.517Z,101224.06
2023-05-12T15:58:28.587Z,101214.16
2023-05-12T16:00:56.017Z,101222.94
2023-05-12T16:03:23.557Z,101216.81
2023-05-12T16:05:50.308Z,101228.50
2023-05-12T16:08:16.851Z,101223.22
2023-05-12T16:10:43.271Z,101223.22
2023-05-12T16:13:09.793Z,101221.91
2023-05-12T16:15:36.359Z,101225.88
2023-05-12T16:18:03.019Z,101223.94
2023-05-12T16:20:29.827Z,101219.66
2023-05-12T16:22:56.355Z,101230.56
2023-05-12T16:25:23.077Z,101217.31
2023-05-12T16:27:50.051Z,101230.59
2023-05-12T16:30:19.316Z,101228.41
2023-05-12T16:32:47.204Z,101224.78
2023-05-12T16:35:13.920Z,101219.31
2023-05-12T16:37:40.627Z,101194.16
2023-05-12T16:40:09.744Z,101194.16
2023-05-12T16:42:36.576Z,101204.38
2023-05-12T16:45:03.182Z,101221.91
2023-05-12T16:47:29.768Z,101237.00
2023-05-12T16:49:58.155Z,101235.31
2023-05-12T16:52:25.551Z,101231.50
2023-05-12T16:54:52.349Z,101223.22
2023-05-12T16:57:19.109Z,101239.94
2023-05-12T16:59:45.707Z,101235.94
2023-05-12T17:02:12.176Z,101230.47
2023-05-12T17:04:38.666Z,101231.09
2023-05-12T17:07:05.729Z,101233.75
2023-05-12T17:09:32.919Z,101227.13
2023-05-12T17:11:59.308Z,101229.59
2023-05-12T17:14:25.697Z,101236.69
2023-05-12T17:16:52.372Z,101234.38
2023-05-12T17:19:18.840Z,101248.25
2023-05-12T17:21:45.303Z,101241.28
2023-05-12T17:24:11.841Z,101246.41
2023-05-12T17:26:38.223Z,101253.53
2023-05-12T17:29:04.705Z,101251.03
2023-05-12T17:31:31.205Z,101249.53
2023-05-12T17:33:57.683Z,101255.16
2023-05-12T17:36:24.226Z,101248.22
2023-05-12T17:38:51.805Z,101252.84
2023-05-12T17:41:19.358Z,101254.13
2023-05-12T17:43:45.931Z,101269.66
2023-05-12T17:46:12.414Z,101275.22
2023-05-12T17:48:39.063Z,101276.41
2023-05-12T17:51:06.300Z,101274.50
2023-05-12T17:53:33.218Z,101281.09
2023-05-12T17:56:00.007Z,101292.44
2023-05-12T17:58:26.505Z,101293.69
2023-05-12T18:00:53.599Z,101301.41
2023-05-12T18:03:23.668Z,101303.50
2023-05-12T18:05:51.077Z,101303.28
2023-05-12T18:08:17.682Z,101311.97
2023-05-12T18:10:44.731Z,101313.72
2023-05-12T18:13:11.413Z,101314.31
2023-05-12T18:15:38.281Z,101306.00
2023-05-12T18:18:05.131Z,101307.00
2023-05-12T18:20:31.637Z,101306.19
2023-05-12T18:22:58.065Z,101302.84
2023-05-12T18:25:24.514Z,101309.63
2023-05-12T18:27:52.104Z,101308.66
2023-05-12T18:30:18.770Z,101302.38
2023-05-12T18:32:45.245Z,101303.09
2023-05-12T18:35:11.707Z,101306.00
2023-05-12T18:37:38.616Z,101308.66
2023-05-12T18:40:06.804Z,101314.09
2023-05-12T18:42:34.071Z,101312.44
2023-05-12T18:45:00.574Z,101302.16
2023-05-12T18:47:27.015Z,101313.84
2023-05-12T18:49:53.502Z,101313.50
2023-05-12T18:52:20.864Z,101302.41
2023-05-12T18:54:49.464Z,101304.50
2023-05-12T18:57:16.392Z,101309.25
2023-05-12T18:59:42.916Z,101315.94
2023-05-12T19:02:09.647Z,101319.00
2023-05-12T19:04:36.167Z,101323.75
2023-05-12T19:07:02.607Z,101329.63
2023-05-12T19:09:29.016Z,101329.25
2023-05-12T19:11:55.433Z,101337.75
2023-05-12T19:14:22.546Z,101327.94
2023-05-12T19:16:49.066Z,101337.94
2023-05-12T19:19:15.607Z,101336.19
2023-05-12T19:21:42.406Z,101334.09
2023-05-12T19:24:10.396Z,101336.63
2023-05-12T19:26:37.237Z,101344.31
2023-05-12T19:29:04.437Z,101348.63
2023-05-12T19:31:31.199Z,101350.16
2023-05-12T19:33:57.700Z,101347.25
2023-05-12T19:36:24.202Z,101347.81
2023-05-12T19:38:50.647Z,101353.50
2023-05-12T19:41:17.112Z,101357.69
2023-05-12T19:43:43.564Z,101367.78
2023-05-12T19:46:10.103Z,101358.78
2023-05-12T19:48:36.568Z,101365.56
2023-05-12T19:51:03.113Z,101372.53
2023-05-12T19:53:29.583Z,101373.19
2023-05-12T19:55:56.730Z,101371.94
2023-05-12T19:58:23.448Z,101378.88
2023-05-12T20:00:49.951Z,101377.75
2023-05-12T20:03:16.483Z,101373.19
2023-05-12T20:05:43.085Z,101382.28
2023-05-12T20:08:09.593Z,101387.97
2023-05-12T20:10:36.067Z,101392.66
2023-05-12T20:13:03.787Z,101391.00
2023-05-12T20:15:31.487Z,101395.56
2023-05-12T20:17:58.169Z,101403.59
2023-05-12T20:20:24.782Z,101395.28
2023-05-12T20:22:54.264Z,101408.69
2023-05-12T20:25:20.983Z,101409.09
2023-05-12T20:27:48.129Z,101401.59
2023-05-12T20:30:14.707Z,101404.63
2023-05-12T20:32:41.264Z,101409.31
2023-05-12T20:35:08.179Z,101421.31
2023-05-12T20:37:34.626Z,101424.47
2023-05-12T20:40:01.312Z,101424.00
2023-05-12T20:42:27.811Z,101422.63
2023-05-12T20:44:54.262Z,101430.16
2023-05-12T20:47:20.789Z,101422.56
2023-05-12T20:49:47.221Z,101425.56
2023-05-12T20:52:13.663Z,101427.50
2023-05-12T20:54:40.135Z,101414.75
2023-05-12T20:57:06.614Z,101428.13
2023-05-12T20:59:33.000Z,101432.94
2023-05-12T21:01:59.431Z,101431.66
2023-05-12T21:04:26.002Z,101434.69
2023-05-12T21:06:53.789Z,101434.09
2023-05-12T21:09:20.396Z,101431.97
2023-05-12T21:11:47.190Z,101426.25
2023-05-12T21:14:13.755Z,101425.53
2023-05-12T21:16:40.331Z,101432.72
2023-05-12T21:19:07.147Z,101426.06
2023-05-12T21:21:33.760Z,101430.75
2023-05-12T21:24:00.208Z,101425.59
2023-05-12T21:26:27.351Z,101429.19
2023-05-12T21:28:54.062Z,101434.44
2023-05-12T21:31:20.546Z,101433.75
2023-05-12T21:33:48.071Z,101431.22
2023-05-12T21:36:14.462Z,101430.66
2023-05-12T21:38:40.902Z,101429.94
2023-05-12T21:41:07.467Z,101436.28
2023-05-12T21:43:33.876Z,101431.41
2023-05-12T21:46:04.282Z,101430.00
2023-05-12T21:48:32.080Z,101421.53
2023-05-12T21:51:00.813Z,101427.97
2023-05-12T21:53:28.682Z,101420.09
2023-05-12T21:55:55.353Z,101428.34
2023-05-12T21:58:23.547Z,101424.41
2023-05-12T22:00:51.269Z,101429.19
2023-05-12T22:03:20.185Z,101425.94
2023-05-12T22:05:47.015Z,101428.00
2023-05-12T22:08:13.898Z,101431.69
2023-05-12T22:10:40.561Z,101429.44
2023-05-12T22:13:07.363Z,101430.50
2023-05-12T22:15:34.104Z,101435.25
2023-05-12T22:18:01.093Z,101425.28
2023-05-12T22:20:27.904Z,101429.06
2023-05-12T22:22:54.437Z,101429.31
2023-05-12T22:25:21.037Z,101424.44
2023-05-12T22:27:47.469Z,101434.22
2023-05-12T22:30:14.185Z,101433.75
2023-05-12T22:32:40.669Z,101430.41
2023-05-12T22:35:07.805Z,101435.50
2023-05-12T22:37:34.325Z,101437.22
2023-05-12T22:40:00.895Z,101439.69
2023-05-12T22:42:27.294Z,101439.84
2023-05-12T22:44:53.681Z,101442.56
2023-05-12T22:47:20.198Z,101448.63
2023-05-12T22:49:46.671Z,101438.28
2023-05-12T22:52:13.148Z,101441.97
2023-05-12T22:54:39.530Z,101432.53
2023-05-12T22:57:06.141Z,101436.47
2023-05-12T22:59:32.583Z,101448.03
2023-05-12T23:01:59.007Z,101439.56
2023-05-12T23:04:25.452Z,101433.84
2023-05-12T23:06:52.020Z,101440.41
2023-05-12T23:09:18.440Z,101437.28
2023-05-12T23:11:44.872Z,101439.28
2023-05-12T23:14:11.450Z,101432.63
2023-05-12T23:16:37.969Z,101432.75
2023-05-12T23:19:04.508Z,101427.75
2023-05-12T23:21:31.568Z,101432.47
2023-05-12T23:23:57.992Z,101433.06
2023-05-12T23:26:24.521Z,101432.47
2023-05-12T23:28:50.921Z,101429.34
2023-05-12T23:31:17.466Z,101424.44
2023-05-12T23:33:44.059Z,101425.16
2023-05-12T23:36:10.572Z,101420.03
2023-05-12T23:38:37.049Z,101414.91
2023-05-12T23:41:03.473Z,101415.75
2023-05-12T23:43:30.935Z,101422.78
2023-05-12T23:45:57.676Z,101418.47
2023-05-12T23:48:24.577Z,101413.47
2023-05-12T23:50:51.020Z,101406.53
2023-05-12T23:53:17.424Z,101402.25
2023-05-12T23:55:43.912Z,101399.88
2023-05-12T23:58:11.131Z,101413.22
